Terminal Aerodrome Forecast
Issued by NWS

Home | Current Version | Previous Version | Text Only | Print | Product List | Glossary On
Versions: 1 2 3 4 5 6 7 8 9 10 11 12 13 14 15 16 17 18 19 20 21
000
FTUS45 KTFX 232347
TAFGTF
TAF
KGTF 232347Z 2400/2424 36010KT P6SM -SHSN BKN017
     FM240600 VRB05KT 6SM -SHSN BR FEW010 BKN025
     FM241500 VRB05KT P6SM SCT015 BKN040
     FM242300 36010KT P6SM BKN050=

USA.gov is the U.S. government's official web portal to all federal, state and local government web resources and services.